Time;durP1;ratioP1;P1;durP2;ratioP2;P2;SDS_P1;SDS_P2;PMS_P1;PMS_P2;Temp;Humidity;BMP_temperature;BMP_pressure;BME280_temperature;BME280_humidity;BME280_pressure;Samples;Min_cycle;Max_cycle;Signal;HPM_P1;HPM_P2
2022/12/27 00:01:00;;;;;;;2.23;1.10;;;8.70;93.20;;;9.04;59.42;99552.06;4978389;28;123783;-73
2022/12/27 00:03:27;;;;;;;4.10;1.07;;;8.90;93.20;;;9.02;59.12;99550.72;4975339;28;110273;-77
2022/12/27 00:05:53;;;;;;;2.93;1.37;;;8.90;93.00;;;8.98;59.29;99564.25;4972419;28;109645;-73
2022/12/27 00:08:20;;;;;;;2.70;1.30;;;8.60;92.90;;;8.95;58.71;99561.25;4971537;28;124217;-73
2022/12/27 00:10:46;;;;;;;1.97;1.30;;;8.60;92.70;;;8.92;58.67;99568.13;4967994;28;123581;-73
2022/12/27 00:13:14;;;;;;;1.20;1.10;;;8.50;92.70;;;8.88;58.44;99561.53;4970528;28;109316;-73
2022/12/27 00:15:40;;;;;;;2.80;1.30;;;8.50;92.60;;;8.87;58.90;99583.88;4970520;28;108867;-73
2022/12/27 00:18:07;;;;;;;5.17;1.30;;;8.50;92.60;;;8.84;58.82;99569.53;4972921;28;124201;-73
2022/12/27 00:20:33;;;;;;;2.90;1.40;;;8.50;92.60;;;8.83;58.83;99581.66;4970380;28;123745;-73
2022/12/27 00:23:00;;;;;;;2.03;1.30;;;8.50;92.60;;;8.83;58.67;99583.59;4965616;28;109071;-73
2022/12/27 00:25:26;;;;;;;2.10;1.10;;;8.50;92.60;;;8.81;58.56;99583.88;4970374;28;109028;-73
2022/12/27 00:27:53;;;;;;;1.60;1.30;;;9.00;92.90;;;8.81;58.69;99591.31;4970169;28;124333;-74
2022/12/27 00:30:19;;;;;;;4.03;1.40;;;8.40;92.60;;;8.80;58.93;99587.72;4987297;28;123153;-73
2022/12/27 00:32:46;;;;;;;4.70;1.40;;;8.50;92.70;;;8.81;59.09;99592.16;4997172;28;107948;-74
2022/12/27 00:35:12;;;;;;;3.00;1.43;;;8.50;92.80;;;8.81;59.02;99597.66;4991751;28;108626;-73
2022/12/27 00:37:39;;;;;;;1.87;1.10;;;8.70;92.90;;;8.81;59.00;99602.31;4988793;28;123789;-73
2022/12/27 00:40:06;;;;;;;1.87;1.20;;;8.50;92.80;;;8.79;59.27;99597.13;4956256;28;123687;-73
2022/12/27 00:42:33;;;;;;;2.43;1.50;;;8.40;92.80;;;8.76;58.95;99594.94;4961543;28;109001;-73
2022/12/27 00:44:59;;;;;;;4.77;1.40;;;8.40;92.90;;;8.71;59.20;99603.22;4961778;28;108706;-73
2022/12/27 00:47:26;;;;;;;7.40;1.40;;;8.40;92.80;;;8.69;59.54;99613.69;4969737;28;123828;-73
2022/12/27 00:49:52;;;;;;;3.73;1.53;;;8.40;92.90;;;8.67;59.19;99618.63;4958359;28;123494;-73
2022/12/27 00:52:18;;;;;;;4.63;1.23;;;8.30;92.80;;;8.64;58.94;99627.47;4965755;28;110027;-73
2022/12/27 00:54:45;;;;;;;2.67;1.70;;;8.30;92.70;;;8.60;58.82;99623.63;4955896;28;109971;-73
2022/12/27 00:57:11;;;;;;;2.93;1.27;;;8.30;92.50;;;8.56;58.77;99628.03;4959716;28;124410;-73
2022/12/27 00:59:38;;;;;;;2.60;1.17;;;8.20;92.50;;;8.54;58.29;99638.50;4949666;28;124222;-73
2022/12/27 01:02:04;;;;;;;2.20;1.53;;;8.60;92.60;;;8.50;58.49;99640.16;4997386;28;109013;-73
2022/12/27 01:04:31;;;;;;;4.40;1.57;;;8.10;92.40;;;8.47;58.38;99646.25;4968787;28;108581;-73
2022/12/27 01:06:57;;;;;;;3.00;1.60;;;8.10;92.40;;;8.47;58.48;99651.75;4964011;28;124035;-73
2022/12/27 01:09:24;;;;;;;2.10;1.20;;;8.10;92.40;;;8.48;58.66;99656.13;4967544;28;123762;-73
2022/12/27 01:11:50;;;;;;;3.83;1.10;;;8.10;92.40;;;8.47;58.36;99652.56;4968441;28;108932;-74
2022/12/27 01:14:17;;;;;;;1.70;1.37;;;8.10;92.40;;;8.49;58.36;99660.53;4999948;28;109044;-74
2022/12/27 01:16:43;;;;;;;1.97;1.30;;;8.10;92.40;;;8.52;58.73;99671.03;4968454;28;124570;-73
2022/12/27 01:19:10;;;;;;;2.67;1.30;;;8.10;92.40;;;8.55;58.45;99674.03;4969456;28;123663;-74
2022/12/27 01:21:37;;;;;;;1.93;1.40;;;8.20;92.50;;;8.58;58.43;99680.91;4967372;28;108949;-74
2022/12/27 01:24:05;;;;;;;2.17;1.17;;;6.80;91.90;;;8.61;58.43;99683.13;4964736;28;108796;-74
2022/12/27 01:26:32;;;;;;;2.40;1.30;;;8.20;92.50;;;8.65;58.32;99698.00;4974129;28;123774;-74
2022/12/27 01:28:58;;;;;;;3.37;1.17;;;8.20;92.60;;;8.71;58.25;99707.06;4969606;28;124253;-74
2022/12/27 01:31:26;;;;;;;3.47;1.13;;;8.30;92.60;;;8.74;58.19;99712.84;4971697;28;109099;-73
2022/12/27 01:33:56;;;;;;;3.93;1.27;;;8.30;92.60;;;8.78;58.13;99713.09;4975677;28;108010;-74
2022/12/27 01:36:25;;;;;;;4.00;1.00;;;8.30;92.50;;;8.79;58.25;99721.09;5004589;28;124218;-74
2022/12/27 01:38:52;;;;;;;4.73;1.30;;;8.30;92.50;;;8.81;58.20;99729.94;4973096;28;123827;-74
2022/12/27 01:44:55;;;;;;;1.50;1.20;;;8.30;92.30;;;8.79;57.85;99736.81;4969962;28;111464;-73
2022/12/27 01:47:40;;;;;;;2.13;1.40;;;8.40;92.30;;;8.78;57.64;99733.22;4912201;28;124086;-74
2022/12/27 01:50:18;;;;;;;2.07;1.20;;;8.30;92.30;;;8.77;57.58;99731.56;4970571;28;124256;-74
2022/12/27 01:53:11;;;;;;;1.73;1.20;;;8.30;92.30;;;8.75;57.27;99731.03;4975243;28;107576;-73
2022/12/27 01:56:11;;;;;;;1.67;1.37;;;8.30;92.20;;;8.72;57.32;99731.56;4974490;28;108956;-74
2022/12/27 01:58:52;;;;;;;1.90;1.20;;;8.30;92.40;;;8.66;57.22;99735.44;4977635;28;123067;-74
2022/12/27 02:01:32;;;;;;;1.67;1.20;;;8.20;91.90;;;8.64;57.11;99740.41;4977976;28;124003;-74
2022/12/27 02:04:05;;;;;;;2.90;1.20;;;8.20;91.90;;;8.61;57.05;99739.03;4972099;28;108454;-73
2022/12/27 02:06:35;;;;;;;3.13;1.50;;;8.20;91.90;;;8.61;56.97;99747.28;4969122;28;108645;-73
2022/12/27 02:09:20;;;;;;;2.10;1.07;;;8.90;92.20;;;8.63;57.12;99744.28;4980976;28;122794;-74
2022/12/27 02:11:54;;;;;;;5.13;1.40;;;8.20;91.90;;;8.62;56.94;99754.47;4972590;28;123696;-73
2022/12/27 02:14:34;;;;;;;3.43;1.17;;;8.20;91.80;;;8.61;57.03;99758.31;4971929;28;109429;-74
2022/12/27 02:17:24;;;;;;;1.97;1.47;;;8.20;91.80;;;8.60;56.94;99756.66;4972293;28;109069;-74
2022/12/27 02:20:21;;;;;;;1.97;1.17;;;8.10;91.70;;;8.58;56.92;99761.63;4971002;28;123950;-74
2022/12/27 02:26:38;;;;;;;1.90;1.03;;;8.10;91.70;;;8.56;56.97;99772.06;4976103;28;109767;-73
2022/12/27 02:29:14;;;;;;;2.50;1.33;;;8.10;91.70;;;8.53;56.73;99774.56;4971387;28;109175;-74
2022/12/27 02:32:05;;;;;;;3.33;1.60;;;8.10;91.70;;;8.51;56.29;99785.03;4971477;28;124193;-74
2022/12/27 02:35:12;;;;;;;2.07;1.17;;;8.10;91.50;;;8.46;56.52;99774.00;4997448;28;122925;-74
2022/12/27 02:38:14;;;;;;;1.90;1.13;;;8.00;91.40;;;8.40;56.10;99778.69;4957204;28;110315;-74
2022/12/27 02:53:07;;;;;;;6.93;1.83;;;7.80;91.40;;;8.04;56.74;99762.09;4988835;28;109819;-74
2022/12/27 02:59:09;;;;;;;2.67;1.13;;;7.60;91.30;;;7.83;57.42;99779.66;4974106;28;124357;-74
2022/12/27 03:05:14;;;;;;;1.97;1.20;;;7.40;91.40;;;7.66;57.33;99782.63;4974684;28;109489;-73
2022/12/27 03:08:10;;;;;;;2.90;1.13;;;7.40;91.40;;;7.59;57.31;99780.09;4954531;28;123259;-73
2022/12/27 03:16:36;;;;;;;2.73;1.67;;;7.20;91.30;;;7.40;57.71;99782.47;4972126;28;109365;-73
2022/12/27 03:33:26;;;;;;;1.67;1.17;;;6.90;91.50;;;7.23;58.13;99795.59;4971266;28;124407;-74
2022/12/27 03:39:04;;;;;;;1.67;1.13;;;7.50;91.80;;;7.29;57.83;99802.78;4974828;28;110364;-73
2022/12/27 03:44:25;;;;;;;3.80;1.33;;;6.90;91.60;;;7.22;57.92;99804.91;4969308;28;124833;-73
2022/12/27 03:46:57;;;;;;;4.03;1.37;;;6.90;91.60;;;7.24;57.81;99816.47;5004992;28;108155;-74
2022/12/27 03:49:38;;;;;;;2.97;1.10;;;6.90;91.60;;;7.26;57.95;99817.88;4971856;28;108919;-73
2022/12/27 03:52:16;;;;;;;1.10;1.00;;;6.90;91.60;;;7.27;58.04;99811.28;4986496;28;123962;-73
2022/12/27 03:54:46;;;;;;;3.00;1.40;;;6.90;91.70;;;7.27;57.60;99821.44;4986730;28;124162;-74
2022/12/27 03:57:16;;;;;;;2.13;1.40;;;6.90;91.60;;;7.27;57.83;99815.94;4968618;28;109178;-73
2022/12/27 03:59:43;;;;;;;2.03;1.50;;;7.00;91.70;;;7.25;57.58;99818.97;4953273;28;108230;-73
2022/12/27 04:02:10;;;;;;;3.30;1.20;;;7.40;91.80;;;7.27;57.42;99821.44;4998783;28;123774;-73
2022/12/27 04:04:37;;;;;;;2.53;1.30;;;6.80;91.60;;;7.25;57.60;99818.97;4952340;28;123112;-74
2022/12/27 04:07:04;;;;;;;3.30;1.27;;;6.80;91.60;;;7.24;57.57;99817.31;4998321;28;109278;-73
2022/12/27 04:37:01;;;;;;;7.50;1.20;;;6.40;91.70;;;6.73;58.38;99816.94;4972181;28;124351;-74
2022/12/27 04:39:27;;;;;;;2.33;1.30;;;6.40;91.80;;;6.74;58.27;99817.75;4967106;28;108950;-73
2022/12/27 04:56:06;;;;;;;4.80;1.20;;;6.50;92.30;;;6.76;58.99;99821.09;4971590;28;124443;-73
2022/12/27 04:58:33;;;;;;;1.53;1.20;;;6.40;92.00;;;6.76;59.21;99821.91;4966044;28;123757;-74
2022/12/27 05:03:52;;;;;;;3.50;1.73;;;6.40;91.90;;;6.77;58.53;99833.72;4973764;28;109493;-74
2022/12/27 05:06:19;;;;;;;2.20;1.43;;;6.40;92.00;;;6.75;58.81;99828.50;4970492;28;123899;-73
2022/12/27 05:14:16;;;;;;;1.53;1.37;;;6.40;91.90;;;6.72;58.95;99831.78;4979536;28;109709;-75
2022/12/27 05:16:43;;;;;;;2.13;1.37;;;6.40;92.10;;;6.70;58.87;99833.13;4976973;28;122712;-81
2022/12/27 05:19:12;;;;;;;3.93;1.60;;;6.30;91.90;;;6.69;58.84;99839.69;4978068;28;123243;-80
2022/12/27 05:27:16;;;;;;;2.63;1.50;;;6.40;92.30;;;6.55;59.17;99847.53;4972438;28;124606;-73
2022/12/27 05:29:44;;;;;;;3.37;1.50;;;6.20;91.90;;;6.50;58.90;99850.22;4970413;28;123821;-73
2022/12/27 05:32:11;;;;;;;1.90;1.30;;;6.20;92.00;;;6.50;59.34;99858.47;4955534;28;108051;-73
2022/12/27 05:34:38;;;;;;;6.03;1.30;;;6.10;92.00;;;6.47;59.44;99853.50;4969510;28;108929;-74
2022/12/27 05:37:04;;;;;;;1.90;1.53;;;6.10;92.00;;;6.45;59.36;99853.75;4969216;28;123983;-73
2022/12/27 05:39:30;;;;;;;1.40;1.20;;;6.10;92.00;;;6.41;59.30;99863.59;4970388;28;124104;-73
2022/12/27 05:41:57;;;;;;;1.73;1.10;;;6.90;92.40;;;6.37;59.46;99856.97;4969459;28;109206;-74
2022/12/27 05:44:23;;;;;;;3.07;1.47;;;6.00;92.00;;;6.34;59.54;99851.97;4968126;28;109153;-73
2022/12/27 05:46:50;;;;;;;1.57;1.20;;;8.00;92.90;;;6.34;59.29;99865.69;4973164;28;123015;-73
2022/12/27 05:49:20;;;;;;;1.83;1.33;;;6.00;92.10;;;6.34;59.47;99865.69;4970892;28;126066;-74
2022/12/27 05:51:46;;;;;;;2.10;1.40;;;6.00;92.20;;;6.31;59.54;99858.00;4966195;28;108932;-73
2022/12/27 05:54:13;;;;;;;1.97;1.77;;;6.30;92.30;;;6.28;59.75;99864.81;4999731;28;108309;-74
2022/12/27 05:56:40;;;;;;;5.00;1.80;;;5.90;92.20;;;6.27;59.47;99865.09;4970678;28;124065;-73
2022/12/27 05:59:06;;;;;;;2.40;1.70;;;5.90;92.20;;;6.24;59.72;99880.16;4969098;28;124022;-74
2022/12/27 06:01:33;;;;;;;4.30;1.50;;;5.90;92.20;;;6.19;59.69;99880.91;4973187;28;109083;-73
2022/12/27 06:03:59;;;;;;;3.30;1.47;;;5.80;92.20;;;6.19;59.96;99885.59;4972570;28;108848;-73
2022/12/27 06:06:26;;;;;;;2.30;1.47;;;6.90;92.70;;;6.21;59.71;99880.69;4969232;28;123874;-74
2022/12/27 06:08:53;;;;;;;2.87;1.30;;;5.80;92.30;;;6.23;59.61;99883.16;4969014;28;123906;-73
2022/12/27 06:11:20;;;;;;;6.00;1.70;;;5.80;92.60;;;6.23;60.07;99883.16;4968696;28;110036;-74
2022/12/27 06:13:52;;;;;;;2.00;1.30;;;5.80;92.30;;;6.26;59.29;99883.50;4970341;28;109247;-73
2022/12/27 06:16:20;;;;;;;1.60;1.30;;;5.80;92.30;;;6.26;59.54;99877.13;4969353;28;124081;-73
2022/12/27 06:18:47;;;;;;;2.27;1.33;;;5.90;92.30;;;6.27;59.33;99867.84;4969777;28;123823;-73
2022/12/27 06:21:18;;;;;;;1.77;1.20;;;5.90;92.30;;;6.29;59.71;99876.66;4972384;28;109484;-73
2022/12/27 06:23:45;;;;;;;2.77;1.50;;;6.00;92.40;;;6.29;59.72;99872.00;4974664;28;108879;-73
2022/12/27 06:26:18;;;;;;;2.67;1.70;;;5.90;92.40;;;6.29;59.23;99872.00;4967451;28;124001;-73
2022/12/27 06:28:44;;;;;;;1.73;1.50;;;5.90;92.30;;;6.29;59.27;99873.91;4963289;28;123808;-73
2022/12/27 06:31:11;;;;;;;1.37;1.17;;;5.90;92.30;;;6.30;59.71;99870.88;4972596;28;109687;-73
2022/12/27 06:33:37;;;;;;;2.00;1.33;;;6.50;92.60;;;6.33;59.41;99877.78;4971723;28;109008;-73
2022/12/27 06:36:13;;;;;;;1.90;1.20;;;6.30;92.50;;;6.35;59.24;99875.63;4963109;28;123902;-74
2022/12/27 06:38:40;;;;;;;3.97;1.47;;;5.90;92.30;;;6.33;59.59;99875.84;4972804;28;124252;-74
2022/12/27 06:41:10;;;;;;;8.63;2.10;;;5.90;92.30;;;6.34;59.54;99882.16;4972612;28;109020;-74
2022/12/27 06:43:37;;;;;;;2.60;1.53;;;5.90;92.30;;;6.34;59.25;99882.16;4979069;28;107925;-73
2022/12/27 06:46:16;;;;;;;2.87;1.47;;;5.90;92.30;;;6.38;59.64;99884.16;4987481;28;123955;-73
2022/12/27 06:48:44;;;;;;;1.90;1.40;;;5.90;92.30;;;6.38;59.08;99881.41;4957761;28;122934;-74
2022/12/27 06:51:13;;;;;;;3.27;1.70;;;5.90;92.30;;;6.40;59.02;99889.41;4991114;28;108883;-74
2022/12/27 06:53:40;;;;;;;1.97;1.20;;;5.90;92.30;;;6.41;58.65;99893.78;4972922;28;108893;-73
2022/12/27 06:56:15;;;;;;;3.60;1.63;;;5.90;92.20;;;6.42;58.82;99898.19;4973701;28;123986;-74
2022/12/27 06:58:42;;;;;;;2.07;1.40;;;5.90;92.20;;;6.41;59.38;99896.53;4987405;28;123712;-73
2022/12/27 07:01:16;;;;;;;1.60;1.50;;;5.90;92.20;;;6.43;59.45;99897.09;4970626;28;110177;-74
2022/12/27 07:03:50;;;;;;;3.70;1.23;;;6.00;92.20;;;6.45;58.78;99905.91;5006436;28;108594;-73
2022/12/27 07:06:18;;;;;;;2.30;1.50;;;6.00;92.20;;;6.45;59.01;99908.66;4970528;28;124302;-74
2022/12/27 07:08:46;;;;;;;1.80;1.43;;;6.00;92.20;;;6.46;59.04;99902.09;4970937;28;123218;-73
2022/12/27 07:11:14;;;;;;;1.60;1.10;;;6.00;92.20;;;6.48;59.43;99904.59;4971176;28;109192;-73
2022/12/27 07:13:44;;;;;;;4.07;1.37;;;6.00;92.20;;;6.51;58.75;99910.38;4972810;28;108928;-73
2022/12/27 07:16:15;;;;;;;2.50;1.40;;;6.80;92.50;;;6.52;58.91;99916.69;4971106;28;124455;-74
2022/12/27 07:18:42;;;;;;;2.63;1.20;;;6.00;92.20;;;6.53;59.12;99910.94;4957360;28;122647;-74
2022/12/27 07:21:14;;;;;;;2.70;1.70;;;6.10;92.30;;;6.54;58.88;99922.75;4971664;28;109292;-74
2022/12/27 07:23:40;;;;;;;3.10;1.60;;;6.00;92.20;;;6.51;58.97;99924.09;4972436;28;108991;-73
2022/12/27 07:26:13;;;;;;;3.57;1.57;;;6.00;92.10;;;6.49;58.80;99914.47;4970783;28;123997;-73
2022/12/27 07:28:40;;;;;;;2.77;1.50;;;6.00;92.10;;;6.48;58.98;99923.81;4971510;28;124260;-73
2022/12/27 07:31:14;;;;;;;3.20;1.70;;;6.00;92.40;;;6.50;58.93;99916.97;4971604;28;108182;-74
2022/12/27 07:33:42;;;;;;;2.67;1.40;;;6.00;92.10;;;6.53;58.64;99921.06;4973197;28;107983;-73
2022/12/27 07:36:16;;;;;;;3.37;1.47;;;6.00;92.10;;;6.55;59.22;99922.47;4971055;28;124075;-74
2022/12/27 07:38:43;;;;;;;2.03;1.50;;;6.10;92.20;;;6.57;58.85;99939.53;4973255;28;123558;-73
2022/12/27 07:41:12;;;;;;;2.63;1.30;;;6.10;92.20;;;6.59;58.71;99928.31;4973751;28;108959;-74
2022/12/27 07:43:39;;;;;;;1.37;1.07;;;6.10;92.10;;;6.58;58.57;99930.22;4973828;28;109063;-74
2022/12/27 07:46:12;;;;;;;3.57;1.40;;;6.10;92.10;;;6.57;58.91;99928.56;4964863;28;123788;-73
2022/12/27 07:48:39;;;;;;;2.63;1.30;;;6.10;92.00;;;6.54;58.58;99929.06;4956369;28;124181;-74
2022/12/27 07:51:06;;;;;;;2.17;1.40;;;6.10;92.00;;;6.55;58.46;99929.91;4961147;28;109773;-73
2022/12/27 07:53:34;;;;;;;3.00;1.60;;;6.10;92.00;;;6.54;58.54;99934.56;4959190;28;109895;-73
2022/12/27 07:56:19;;;;;;;2.57;1.50;;;6.10;92.00;;;6.56;58.42;99924.16;4991897;28;123338;-74
2022/12/27 07:59:07;;;;;;;7.80;1.93;;;6.10;91.90;;;6.53;58.85;99926.56;4965282;28;124195;-73
2022/12/27 08:04:19;;;;;;;3.20;1.60;;;6.10;91.90;;;6.54;58.86;99918.09;4967305;28;109395;-75
2022/12/27 08:06:46;;;;;;;3.03;1.50;;;7.60;92.50;;;6.56;58.52;99918.66;4970162;28;123912;-75
2022/12/27 08:09:18;;;;;;;2.13;1.40;;;6.10;92.20;;;6.58;58.79;99913.75;4968125;28;123734;-75
2022/12/27 08:11:45;;;;;;;1.50;1.20;;;6.10;91.90;;;6.59;58.17;99920.06;4968813;28;109489;-75
2022/12/27 08:14:11;;;;;;;1.60;1.30;;;6.10;91.90;;;6.62;58.84;99920.38;4968545;28;107899;-75
2022/12/27 08:16:38;;;;;;;2.70;1.27;;;6.20;92.00;;;6.66;58.17;99914.34;4967337;28;124031;-75
2022/12/27 08:19:04;;;;;;;2.40;1.53;;;4.60;91.30;;;6.69;58.60;99902.84;4968228;28;124007;-76
2022/12/27 08:21:32;;;;;;;1.60;1.30;;;6.30;92.00;;;6.72;58.22;99902.34;4955427;28;108314;-75
2022/12/27 08:24:01;;;;;;;2.57;1.50;;;6.30;92.00;;;6.79;58.78;99908.44;4968218;28;108790;-75
2022/12/27 08:26:27;;;;;;;3.80;1.90;;;6.30;92.00;;;6.85;58.71;99913.75;4986666;28;125025;-75
2022/12/27 08:28:53;;;;;;;4.00;1.80;;;6.40;92.00;;;6.92;58.18;99919.00;4934788;28;123808;-75
2022/12/27 08:31:20;;;;;;;2.00;1.60;;;6.40;92.00;;;6.97;57.87;99916.31;4962792;28;109111;-75
2022/12/27 08:33:46;;;;;;;2.60;1.30;;;6.60;92.00;;;7.01;57.94;99922.97;4968879;28;108817;-75
2022/12/27 08:36:13;;;;;;;2.90;1.37;;;6.50;91.90;;;7.02;57.95;99916.34;4967806;28;123869;-75
2022/12/27 08:38:40;;;;;;;2.97;1.63;;;6.50;91.90;;;7.06;57.82;99914.72;4967249;28;123762;-75
2022/12/27 08:41:12;;;;;;;2.27;1.43;;;6.50;91.90;;;7.06;57.71;99906.47;4968493;28;110217;-75
2022/12/27 08:43:40;;;;;;;5.37;1.70;;;6.50;91.70;;;7.02;57.38;99916.34;4965904;28;109615;-75
2022/12/27 08:46:08;;;;;;;3.47;1.30;;;6.70;91.80;;;7.03;57.64;99919.94;4962071;28;123750;-75
2022/12/27 08:48:36;;;;;;;2.37;1.20;;;6.70;91.80;;;7.03;57.58;99920.75;4968339;28;123864;-75
2022/12/27 08:51:04;;;;;;;2.70;1.63;;;6.90;91.80;;;7.03;57.55;99918.00;4977270;28;108787;-75
2022/12/27 08:53:31;;;;;;;3.70;2.10;;;6.60;91.60;;;7.03;57.69;99915.25;4970874;28;108803;-76
2022/12/27 08:55:57;;;;;;;2.07;1.57;;;6.60;91.60;;;7.08;57.50;99917.22;4969861;28;123713;-75
2022/12/27 08:58:24;;;;;;;2.67;1.30;;;6.60;91.70;;;7.11;57.65;99930.44;4972945;28;123865;-76
2022/12/27 09:00:50;;;;;;;2.40;1.60;;;6.60;91.60;;;7.12;57.48;99932.13;4971932;28;109234;-75
2022/12/27 09:03:19;;;;;;;8.20;1.80;;;6.70;91.50;;;7.15;57.30;99939.00;4973056;28;110601;-77
2022/12/27 09:05:48;;;;;;;2.47;1.50;;;6.90;91.50;;;7.17;57.09;99939.56;4991350;28;122146;-75
2022/12/27 09:08:15;;;;;;;2.07;1.30;;;6.70;91.40;;;7.19;57.10;99929.13;4970354;28;121901;-75
2022/12/27 09:10:44;;;;;;;2.63;1.40;;;6.70;91.30;;;7.22;56.99;99934.09;4970808;28;108452;-75
2022/12/27 09:13:10;;;;;;;5.53;1.40;;;6.70;91.30;;;7.27;57.37;99931.41;4971176;28;109071;-75
2022/12/27 09:15:37;;;;;;;5.03;1.80;;;6.80;91.30;;;7.33;56.60;99935.00;4951720;28;123808;-75
2022/12/27 09:18:05;;;;;;;2.67;1.40;;;6.80;91.30;;;7.41;56.36;99940.03;4966911;28;123611;-75
2022/12/27 09:20:32;;;;;;;1.60;1.40;;;6.90;91.30;;;7.46;56.94;99935.38;4972522;28;108348;-76
2022/12/27 09:22:58;;;;;;;2.33;1.50;;;6.90;91.20;;;7.50;56.68;99942.03;4970684;28;108987;-75
2022/12/27 09:25:26;;;;;;;2.00;1.33;;;7.00;91.20;;;7.55;56.31;99940.41;4970556;28;123939;-75
2022/12/27 09:27:53;;;;;;;2.47;1.43;;;7.00;91.10;;;7.58;56.27;99935.22;4969818;28;124033;-76
2022/12/27 09:30:40;;;;;;;4.00;1.80;;;7.10;91.00;;;7.60;55.91;99941.25;4969676;28;110179;-75
2022/12/27 09:33:06;;;;;;;1.27;1.10;;;7.10;91.00;;;7.64;56.40;99941.56;4873929;28;108833;-75
2022/12/27 09:35:32;;;;;;;1.67;1.40;;;7.10;91.10;;;7.68;55.88;99938.03;4873961;28;124029;-75
2022/12/27 09:37:59;;;;;;;2.03;1.30;;;7.20;91.00;;;7.72;55.87;99938.31;4873891;28;123480;-75
2022/12/27 09:40:25;;;;;;;4.10;1.60;;;7.20;90.90;;;7.75;55.64;99940.53;4872007;28;108938;-75
2022/12/27 09:43:05;;;;;;;2.77;1.30;;;7.20;90.80;;;7.81;55.43;99944.97;4873188;28;108625;-75
2022/12/27 09:45:41;;;;;;;1.20;1.10;;;7.60;91.00;;;7.88;55.48;99950.25;4890478;28;124908;-75
2022/12/27 09:48:35;;;;;;;6.80;1.90;;;7.50;90.90;;;7.92;55.66;99954.94;4874159;28;123203;-76
2022/12/27 09:51:14;;;;;;;3.10;1.80;;;7.70;90.90;;;7.99;55.35;99945.63;4892297;28;109165;-75
2022/12/27 09:53:55;;;;;;;3.60;1.87;;;7.50;90.70;;;8.05;55.28;99947.31;4876106;28;108268;-75
2022/12/27 09:56:27;;;;;;;1.77;1.20;;;7.50;90.60;;;8.11;54.98;99940.72;4895510;28;123695;-75
2022/12/27 09:59:08;;;;;;;3.00;1.20;;;7.60;90.60;;;8.20;54.96;99944.63;4893059;28;124384;-75
2022/12/27 10:01:39;;;;;;;2.90;1.30;;;7.60;90.60;;;8.22;54.53;99939.69;4912068;28;108847;-75
2022/12/27 10:04:12;;;;;;;4.73;1.53;;;7.70;90.50;;;8.28;54.42;99935.03;4895292;28;108567;-75
2022/12/27 10:06:49;;;;;;;2.57;1.50;;;7.70;90.40;;;8.34;54.35;99933.94;4886721;28;124006;-75
2022/12/27 10:09:44;;;;;;;2.87;1.40;;;7.80;90.30;;;8.40;54.33;99924.63;4900045;28;124149;-75
2022/12/27 10:12:40;;;;;;;5.77;1.47;;;7.90;90.20;;;8.47;54.05;99932.66;4993178;28;109187;-76
2022/12/27 10:15:34;;;;;;;2.70;1.47;;;7.90;90.20;;;8.54;54.07;99941.47;4965555;28;108755;-75
2022/12/27 10:18:19;;;;;;;3.13;1.60;;;8.00;90.20;;;8.62;54.00;99936.28;4974089;28;124054;-75
2022/12/27 10:20:53;;;;;;;3.23;1.47;;;8.30;90.30;;;8.70;53.94;99934.91;4974846;28;123584;-75
2022/12/27 10:23:25;;;;;;;4.37;1.37;;;8.10;90.20;;;8.78;53.66;99928.84;4960063;28;110259;-75
2022/12/27 10:25:59;;;;;;;2.87;1.37;;;8.20;90.20;;;8.89;55.49;99932.44;4970423;28;109910;-75
2022/12/27 10:28:42;;;;;;;2.90;1.40;;;8.30;90.70;;;9.10;55.88;99930.53;4959410;28;123230;-74
2022/12/27 10:31:15;;;;;;;2.83;1.30;;;8.40;91.40;;;9.22;54.64;99928.34;4972557;28;124547;-74
2022/12/27 10:33:43;;;;;;;1.67;1.20;;;8.50;90.90;;;9.33;56.61;99920.09;4958358;28;109123;-74
2022/12/27 10:36:23;;;;;;;4.40;1.40;;;8.70;91.60;;;9.52;56.32;99921.16;4990461;28;108626;-74
2022/12/27 10:38:49;;;;;;;2.37;1.30;;;8.80;91.70;;;9.70;56.68;99922.53;4955523;28;124056;-74
2022/12/27 10:41:28;;;;;;;8.53;1.50;;;9.00;92.00;;;9.85;55.77;99914.19;4953930;28;123966;-74
2022/12/27 10:43:55;;;;;;;4.30;1.47;;;9.10;91.50;;;10.06;56.20;99931.53;4970351;28;108859;-74
2022/12/27 10:46:25;;;;;;;2.37;1.20;;;9.30;92.00;;;10.32;55.46;99928.72;4956243;28;108495;-73
2022/12/27 10:48:59;;;;;;;1.90;1.30;;;9.50;91.90;;;10.55;54.30;99928.03;4973167;28;125354;-73
2022/12/27 10:51:33;;;;;;;2.50;1.63;;;9.70;91.70;;;10.71;53.59;99925.19;4960044;28;124397;-73
2022/12/27 10:54:23;;;;;;;2.57;1.37;;;9.80;91.20;;;10.82;53.35;99922.06;4959955;28;109998;-74
2022/12/27 10:56:50;;;;;;;5.07;1.43;;;10.00;90.40;;;10.99;52.55;99912.56;4984547;28;109089;-81
2022/12/27 10:59:24;;;;;;;1.80;1.40;;;10.10;90.20;;;11.12;51.93;99909.13;4977277;28;123274;-75
2022/12/27 11:02:02;;;;;;;1.90;1.33;;;10.30;89.70;;;11.16;50.87;99906.63;4988528;28;123804;-73
2022/12/27 11:04:30;;;;;;;2.13;1.87;;;10.40;88.30;;;11.18;50.55;99907.16;4957421;28;109256;-73
2022/12/27 11:07:02;;;;;;;2.43;1.30;;;10.50;87.80;;;11.23;50.04;99905.19;4961623;28;108325;-73
2022/12/27 11:09:35;;;;;;;2.87;1.53;;;10.50;87.20;;;11.29;49.38;99908.72;4971118;28;123910;-75
2022/12/27 11:12:17;;;;;;;2.13;1.57;;;10.60;86.50;;;11.36;49.59;99906.44;4970261;28;124217;-74
2022/12/27 11:15:16;;;;;;;4.30;1.67;;;10.60;86.20;;;11.43;49.28;99909.69;4971378;28;110219;-74
2022/12/27 11:18:11;;;;;;;6.23;1.50;;;10.70;85.40;;;11.48;49.24;99906.88;4939343;28;109133;-78
2022/12/27 11:20:50;;;;;;;7.17;1.90;;;10.80;85.30;;;11.53;48.96;99897.72;4957118;28;123823;-74
2022/12/27 11:23:19;;;;;;;2.40;1.60;;;10.80;85.00;;;11.54;48.63;99898.53;4985133;28;124898;-74
2022/12/27 11:26:00;;;;;;;2.93;1.60;;;10.90;84.40;;;11.57;48.56;99900.72;4969367;28;109064;-74
2022/12/27 11:28:39;;;;;;;2.17;1.63;;;10.90;84.40;;;11.61;48.28;99904.56;4969409;28;108654;-73
2022/12/27 11:31:18;;;;;;;3.00;1.63;;;11.00;84.40;;;11.66;48.68;99910.03;4956859;28;125575;-73
2022/12/27 11:33:49;;;;;;;2.70;1.63;;;11.10;84.30;;;11.66;47.79;99904.47;4963038;28;123882;-73
2022/12/27 11:36:39;;;;;;;3.07;1.50;;;11.10;83.10;;;11.67;47.95;99900.63;4957591;28;109173;-72
2022/12/27 11:39:09;;;;;;;2.83;1.90;;;11.10;83.20;;;11.66;47.21;99890.66;4968108;28;108936;-73
2022/12/27 11:41:47;;;;;;;2.53;1.23;;;11.10;82.60;;;11.69;47.82;99896.44;4972769;28;124088;-74
2022/12/27 11:44:37;;;;;;;4.23;1.67;;;11.10;83.00;;;11.73;47.68;99885.59;4954673;28;124599;-74
2022/12/27 11:47:25;;;;;;;4.27;1.30;;;11.20;82.80;;;11.74;47.46;99887.25;4968195;28;109024;-75
2022/12/27 11:50:06;;;;;;;1.87;1.40;;;11.20;82.50;;;11.80;47.29;99888.03;4955327;28;107857;-73
2022/12/27 11:53:31;;;;;;;4.03;1.30;;;11.20;82.30;;;11.82;47.53;99889.38;4970241;28;123881;-74
2022/12/27 11:56:19;;;;;;;3.40;1.63;;;11.30;82.10;;;11.75;46.70;99888.91;4873538;28;123767;-74
2022/12/27 11:59:05;;;;;;;2.00;1.30;;;11.30;81.20;;;11.66;46.27;99890.66;4873628;28;109721;-73
2022/12/27 12:02:12;;;;;;;8.03;1.87;;;11.20;80.50;;;11.61;46.88;99876.88;4869451;28;109413;-74
2022/12/27 12:05:23;;;;;;;3.77;1.70;;;11.20;80.60;;;11.62;46.38;99884.06;4873581;28;123901;-74
2022/12/27 12:08:20;;;;;;;2.20;1.60;;;11.10;79.80;;;11.54;46.04;99879.16;4825546;29;124093;-73
2022/12/27 12:11:08;;;;;;;2.13;1.27;;;11.10;79.50;;;11.48;46.23;99881.97;4871414;28;110330;-74
2022/12/27 12:14:04;;;;;;;5.13;1.50;;;11.10;79.50;;;11.47;46.19;99887.78;4861377;28;109767;-74
2022/12/27 12:17:20;;;;;;;1.47;1.13;;;11.10;79.30;;;11.52;46.34;99876.66;4868761;28;124091;-76
2022/12/27 12:20:42;;;;;;;6.10;1.27;;;11.10;79.60;;;11.61;46.60;99879.66;4822646;29;124352;-75
2022/12/27 12:23:58;;;;;;;1.73;1.30;;;11.20;80.40;;;11.69;46.58;99873.47;4806916;29;109193;-74
2022/12/27 12:26:26;;;;;;;3.47;1.50;;;11.30;79.80;;;11.71;45.89;99868.44;4902455;28;108918;-74
2022/12/27 12:29:58;;;;;;;3.40;1.30;;;11.30;79.50;;;11.72;45.89;99872.88;4966454;28;124649;-78
2022/12/27 12:32:42;;;;;;;3.70;1.40;;;11.30;78.90;;;11.74;46.16;99865.13;4946803;28;125389;-75
2022/12/27 12:35:38;;;;;;;3.57;1.40;;;11.40;79.50;;;11.80;46.02;99871.41;4967016;28;109145;-75
2022/12/27 12:38:35;;;;;;;3.90;2.00;;;11.40;79.10;;;11.84;45.90;99869.69;4970197;28;108921;-75
2022/12/27 12:41:24;;;;;;;4.67;1.93;;;11.50;79.30;;;11.90;45.96;99863.84;4947069;28;123133;-74